sensor_id;sensor_type;location;lat;lon;timestamp;temperature;humidity
6764;DHT22;47432;48.760;9.178;2023-07-29T00:02:20;18.40;99.90
6764;DHT22;47432;48.760;9.178;2023-07-29T00:04:48;18.40;99.90
6764;DHT22;47432;48.760;9.178;2023-07-29T00:07:14;18.40;99.90
6764;DHT22;47432;48.760;9.178;2023-07-29T00:09:40;18.40;99.90
6764;DHT22;47432;48.760;9.178;2023-07-29T00:12:05;18.40;99.90
6764;DHT22;47432;48.760;9.178;2023-07-29T00:14:31;18.50;99.90
6764;DHT22;47432;48.760;9.178;2023-07-29T00:16:57;18.50;99.90
6764;DHT22;47432;48.760;9.178;2023-07-29T00:19:23;18.50;99.90
6764;DHT22;47432;48.760;9.178;2023-07-29T00:21:50;18.50;99.90
6764;DHT22;47432;48.760;9.178;2023-07-29T00:24:16;18.60;99.90
6764;DHT22;47432;48.760;9.178;2023-07-29T00:26:42;18.60;99.90
6764;DHT22;47432;48.760;9.178;2023-07-29T00:29:08;18.60;99.90
6764;DHT22;47432;48.760;9.178;2023-07-29T00:31:33;18.60;99.90
6764;DHT22;47432;48.760;9.178;2023-07-29T00:33:59;18.60;99.90
6764;DHT22;47432;48.760;9.178;2023-07-29T00:36:25;18.60;99.90
6764;DHT22;47432;48.760;9.178;2023-07-29T00:38:50;18.60;99.90
6764;DHT22;47432;48.760;9.178;2023-07-29T00:41:18;18.70;99.90
6764;DHT22;47432;48.760;9.178;2023-07-29T00:43:44;18.60;99.90
6764;DHT22;47432;48.760;9.178;2023-07-29T00:46:11;18.60;99.90
6764;DHT22;47432;48.760;9.178;2023-07-29T00:48:38;18.60;99.90
6764;DHT22;47432;48.760;9.178;2023-07-29T00:51:04;18.60;99.90
6764;DHT22;47432;48.760;9.178;2023-07-29T00:53:30;18.60;99.90
6764;DHT22;47432;48.760;9.178;2023-07-29T00:55:55;18.60;99.90
6764;DHT22;47432;48.760;9.178;2023-07-29T00:58:21;18.60;99.90
6764;DHT22;47432;48.760;9.178;2023-07-29T01:00:47;18.60;99.90
6764;DHT22;47432;48.760;9.178;2023-07-29T01:03:13;18.60;99.90
6764;DHT22;47432;48.760;9.178;2023-07-29T01:12:27;18.60;99.90
6764;DHT22;47432;48.760;9.178;2023-07-29T01:15:11;18.60;99.90
6764;DHT22;47432;48.760;9.178;2023-07-29T01:17:43;18.60;99.90
6764;DHT22;47432;48.760;9.178;2023-07-29T01:20:15;18.60;99.90
6764;DHT22;47432;48.760;9.178;2023-07-29T01:22:42;18.60;99.90
6764;DHT22;47432;48.760;9.178;2023-07-29T01:25:08;18.60;99.90
6764;DHT22;47432;48.760;9.178;2023-07-29T01:27:34;18.60;99.90
6764;DHT22;47432;48.760;9.178;2023-07-29T01:30:00;18.60;99.90
6764;DHT22;47432;48.760;9.178;2023-07-29T01:32:53;18.60;99.90
6764;DHT22;47432;48.760;9.178;2023-07-29T01:35:43;18.60;99.90
6764;DHT22;47432;48.760;9.178;2023-07-29T01:38:24;18.60;99.90
6764;DHT22;47432;48.760;9.178;2023-07-29T01:40:57;18.60;99.90
6764;DHT22;47432;48.760;9.178;2023-07-29T01:43:23;18.60;99.90
6764;DHT22;47432;48.760;9.178;2023-07-29T01:45:51;18.70;99.90
6764;DHT22;47432;48.760;9.178;2023-07-29T01:48:17;18.70;99.90
6764;DHT22;47432;48.760;9.178;2023-07-29T01:50:43;18.70;99.90
6764;DHT22;47432;48.760;9.178;2023-07-29T01:53:08;18.70;99.90
6764;DHT22;47432;48.760;9.178;2023-07-29T01:55:34;18.70;99.90
6764;DHT22;47432;48.760;9.178;2023-07-29T01:58:02;18.70;99.90
6764;DHT22;47432;48.760;9.178;2023-07-29T02:00:28;18.70;99.90
6764;DHT22;47432;48.760;9.178;2023-07-29T02:02:53;18.70;99.90
6764;DHT22;47432;48.760;9.178;2023-07-29T02:05:19;18.70;99.90
6764;DHT22;47432;48.760;9.178;2023-07-29T02:07:45;18.70;99.90
6764;DHT22;47432;48.760;9.178;2023-07-29T02:10:11;18.60;99.90
6764;DHT22;47432;48.760;9.178;2023-07-29T02:12:36;18.60;99.90
6764;DHT22;47432;48.760;9.178;2023-07-29T02:15:03;18.60;99.90
6764;DHT22;47432;48.760;9.178;2023-07-29T02:17:30;18.50;99.90
6764;DHT22;47432;48.760;9.178;2023-07-29T02:19:56;18.40;99.90
6764;DHT22;47432;48.760;9.178;2023-07-29T02:22:21;18.40;99.90
6764;DHT22;47432;48.760;9.178;2023-07-29T02:24:47;18.40;99.90
6764;DHT22;47432;48.760;9.178;2023-07-29T02:27:13;18.40;99.90
6764;DHT22;47432;48.760;9.178;2023-07-29T02:29:39;18.40;99.90
6764;DHT22;47432;48.760;9.178;2023-07-29T02:32:05;18.40;99.90
6764;DHT22;47432;48.760;9.178;2023-07-29T02:34:31;18.40;99.90
6764;DHT22;47432;48.760;9.178;2023-07-29T02:36:56;18.40;99.90
6764;DHT22;47432;48.760;9.178;2023-07-29T02:39:22;18.40;99.90
6764;DHT22;47432;48.760;9.178;2023-07-29T02:41:48;18.40;99.90
6764;DHT22;47432;48.760;9.178;2023-07-29T02:44:15;18.40;99.90
6764;DHT22;47432;48.760;9.178;2023-07-29T02:46:41;18.40;99.90
6764;DHT22;47432;48.760;9.178;2023-07-29T02:49:07;18.50;99.90
6764;DHT22;47432;48.760;9.178;2023-07-29T02:51:32;18.40;99.90
6764;DHT22;47432;48.760;9.178;2023-07-29T02:53:58;18.50;99.90
6764;DHT22;47432;48.760;9.178;2023-07-29T02:56:24;18.50;99.90
6764;DHT22;47432;48.760;9.178;2023-07-29T02:58:50;18.50;99.90
6764;DHT22;47432;48.760;9.178;2023-07-29T03:01:18;18.50;99.90
6764;DHT22;47432;48.760;9.178;2023-07-29T03:03:44;18.60;99.90
6764;DHT22;47432;48.760;9.178;2023-07-29T03:06:13;18.60;99.90
6764;DHT22;47432;48.760;9.178;2023-07-29T03:08:41;18.60;99.90
6764;DHT22;47432;48.760;9.178;2023-07-29T03:11:15;18.60;99.90
6764;DHT22;47432;48.760;9.178;2023-07-29T03:13:42;18.60;99.90
6764;DHT22;47432;48.760;9.178;2023-07-29T03:16:09;18.60;99.90
6764;DHT22;47432;48.760;9.178;2023-07-29T03:18:40;18.60;99.90
6764;DHT22;47432;48.760;9.178;2023-07-29T03:21:10;18.60;99.90
6764;DHT22;47432;48.760;9.178;2023-07-29T03:23:36;18.60;99.90
6764;DHT22;47432;48.760;9.178;2023-07-29T03:26:03;18.60;99.90
6764;DHT22;47432;48.760;9.178;2023-07-29T03:28:36;18.60;99.90
6764;DHT22;47432;48.760;9.178;2023-07-29T03:31:05;18.60;99.90
6764;DHT22;47432;48.760;9.178;2023-07-29T03:33:31;18.60;99.90
6764;DHT22;47432;48.760;9.178;2023-07-29T03:36:01;18.60;99.90
6764;DHT22;47432;48.760;9.178;2023-07-29T03:38:27;18.60;99.90
6764;DHT22;47432;48.760;9.178;2023-07-29T03:40:53;18.60;99.90
6764;DHT22;47432;48.760;9.178;2023-07-29T03:43:19;18.50;99.90
6764;DHT22;47432;48.760;9.178;2023-07-29T03:45:45;18.50;99.90
6764;DHT22;47432;48.760;9.178;2023-07-29T03:48:13;18.50;99.90
6764;DHT22;47432;48.760;9.178;2023-07-29T03:50:39;18.60;99.90
6764;DHT22;47432;48.760;9.178;2023-07-29T03:53:05;18.60;99.90
6764;DHT22;47432;48.760;9.178;2023-07-29T03:55:35;18.70;99.90
6764;DHT22;47432;48.760;9.178;2023-07-29T03:58:01;18.70;99.90
6764;DHT22;47432;48.760;9.178;2023-07-29T04:00:29;18.70;99.90
6764;DHT22;47432;48.760;9.178;2023-07-29T04:02:56;18.70;99.90
6764;DHT22;47432;48.760;9.178;2023-07-29T04:05:22;18.80;99.90
6764;DHT22;47432;48.760;9.178;2023-07-29T04:07:47;18.90;99.90
6764;DHT22;47432;48.760;9.178;2023-07-29T04:10:13;18.80;99.90
6764;DHT22;47432;48.760;9.178;2023-07-29T04:12:39;18.90;99.90
6764;DHT22;47432;48.760;9.178;2023-07-29T04:15:05;18.90;99.90
6764;DHT22;47432;48.760;9.178;2023-07-29T04:17:34;19.00;99.90
6764;DHT22;47432;48.760;9.178;2023-07-29T04:20:00;18.90;99.90
6764;DHT22;47432;48.760;9.178;2023-07-29T04:22:26;18.90;99.90
6764;DHT22;47432;48.760;9.178;2023-07-29T04:24:51;18.70;99.90
6764;DHT22;47432;48.760;9.178;2023-07-29T04:27:17;18.80;99.90
6764;DHT22;47432;48.760;9.178;2023-07-29T04:29:43;18.80;99.90
6764;DHT22;47432;48.760;9.178;2023-07-29T04:32:08;18.80;99.90
6764;DHT22;47432;48.760;9.178;2023-07-29T04:37:01;18.90;99.90
6764;DHT22;47432;48.760;9.178;2023-07-29T04:39:26;18.90;99.90
6764;DHT22;47432;48.760;9.178;2023-07-29T04:41:54;18.90;99.90
6764;DHT22;47432;48.760;9.178;2023-07-29T04:44:20;18.90;99.90
6764;DHT22;47432;48.760;9.178;2023-07-29T04:46:49;18.90;99.90
6764;DHT22;47432;48.760;9.178;2023-07-29T04:49:15;18.90;99.90
6764;DHT22;47432;48.760;9.178;2023-07-29T04:51:40;18.90;99.90
6764;DHT22;47432;48.760;9.178;2023-07-29T04:54:06;18.90;99.90
6764;DHT22;47432;48.760;9.178;2023-07-29T04:56:32;19.00;99.90
6764;DHT22;47432;48.760;9.178;2023-07-29T04:58:57;19.00;99.90
6764;DHT22;47432;48.760;9.178;2023-07-29T05:01:23;19.00;99.90
6764;DHT22;47432;48.760;9.178;2023-07-29T05:03:50;19.10;99.90
6764;DHT22;47432;48.760;9.178;2023-07-29T05:06:15;19.00;99.90
6764;DHT22;47432;48.760;9.178;2023-07-29T05:08:43;18.90;99.90
6764;DHT22;47432;48.760;9.178;2023-07-29T05:11:09;18.90;99.90
6764;DHT22;47432;48.760;9.178;2023-07-29T05:13:36;19.00;99.90
6764;DHT22;47432;48.760;9.178;2023-07-29T05:16:02;19.00;99.90
6764;DHT22;47432;48.760;9.178;2023-07-29T05:18:27;19.10;99.90
6764;DHT22;47432;48.760;9.178;2023-07-29T05:20:53;19.10;99.90
6764;DHT22;47432;48.760;9.178;2023-07-29T05:23:21;19.10;99.90
6764;DHT22;47432;48.760;9.178;2023-07-29T05:25:47;19.10;99.90
6764;DHT22;47432;48.760;9.178;2023-07-29T05:28:13;19.10;99.90
6764;DHT22;47432;48.760;9.178;2023-07-29T05:30:38;19.10;99.90
6764;DHT22;47432;48.760;9.178;2023-07-29T05:33:05;19.10;99.90
6764;DHT22;47432;48.760;9.178;2023-07-29T05:35:35;19.10;99.90
6764;DHT22;47432;48.760;9.178;2023-07-29T05:38:01;19.10;99.90
6764;DHT22;47432;48.760;9.178;2023-07-29T05:40:31;19.10;99.90
6764;DHT22;47432;48.760;9.178;2023-07-29T05:42:57;19.20;99.90
6764;DHT22;47432;48.760;9.178;2023-07-29T05:45:23;19.20;99.90
6764;DHT22;47432;48.760;9.178;2023-07-29T05:47:48;19.30;99.90
6764;DHT22;47432;48.760;9.178;2023-07-29T05:50:14;19.30;99.90
6764;DHT22;47432;48.760;9.178;2023-07-29T05:52:40;19.40;99.90
6764;DHT22;47432;48.760;9.178;2023-07-29T05:55:06;19.40;99.90
6764;DHT22;47432;48.760;9.178;2023-07-29T05:57:34;19.40;99.90
6764;DHT22;47432;48.760;9.178;2023-07-29T06:00:00;19.50;99.90
6764;DHT22;47432;48.760;9.178;2023-07-29T06:02:28;19.50;99.90
6764;DHT22;47432;48.760;9.178;2023-07-29T06:04:54;19.60;99.90
6764;DHT22;47432;48.760;9.178;2023-07-29T06:07:20;19.70;99.90
6764;DHT22;47432;48.760;9.178;2023-07-29T06:09:46;19.80;99.90
6764;DHT22;47432;48.760;9.178;2023-07-29T06:12:12;19.90;99.90
6764;DHT22;47432;48.760;9.178;2023-07-29T06:14:37;20.00;99.90
6764;DHT22;47432;48.760;9.178;2023-07-29T06:17:06;20.10;99.90
6764;DHT22;47432;48.760;9.178;2023-07-29T06:19:32;20.30;99.90
6764;DHT22;47432;48.760;9.178;2023-07-29T06:21:58;20.40;99.90
6764;DHT22;47432;48.760;9.178;2023-07-29T06:24:26;20.50;99.90
6764;DHT22;47432;48.760;9.178;2023-07-29T06:26:52;20.50;99.90
6764;DHT22;47432;48.760;9.178;2023-07-29T06:29:18;20.60;99.90
6764;DHT22;47432;48.760;9.178;2023-07-29T06:31:44;20.80;99.90
6764;DHT22;47432;48.760;9.178;2023-07-29T06:34:09;20.80;99.90
6764;DHT22;47432;48.760;9.178;2023-07-29T06:36:35;20.80;99.90
6764;DHT22;47432;48.760;9.178;2023-07-29T06:39:03;20.80;99.90
6764;DHT22;47432;48.760;9.178;2023-07-29T06:41:31;20.90;99.90
6764;DHT22;47432;48.760;9.178;2023-07-29T06:43:57;20.90;99.90
6764;DHT22;47432;48.760;9.178;2023-07-29T06:48:49;20.90;99.90
6764;DHT22;47432;48.760;9.178;2023-07-29T06:51:15;21.00;99.90
6764;DHT22;47432;48.760;9.178;2023-07-29T06:53:41;21.10;99.90
6764;DHT22;47432;48.760;9.178;2023-07-29T06:56:06;21.10;99.90
6764;DHT22;47432;48.760;9.178;2023-07-29T07:00:59;21.00;99.90
6764;DHT22;47432;48.760;9.178;2023-07-29T07:03:25;21.00;99.90
6764;DHT22;47432;48.760;9.178;2023-07-29T07:05:51;20.80;99.90
6764;DHT22;47432;48.760;9.178;2023-07-29T07:08:16;20.70;99.90
6764;DHT22;47432;48.760;9.178;2023-07-29T07:10:42;20.60;99.90
6764;DHT22;47432;48.760;9.178;2023-07-29T07:13:12;20.50;99.90
6764;DHT22;47432;48.760;9.178;2023-07-29T07:15:37;20.50;99.90
6764;DHT22;47432;48.760;9.178;2023-07-29T07:18:03;20.30;99.90
6764;DHT22;47432;48.760;9.178;2023-07-29T07:20:29;18.20;99.90
6764;DHT22;47432;48.760;9.178;2023-07-29T07:22:55;20.30;99.90
6764;DHT22;47432;48.760;9.178;2023-07-29T07:27:49;20.20;99.90
6764;DHT22;47432;48.760;9.178;2023-07-29T07:30:15;20.30;99.90
6764;DHT22;47432;48.760;9.178;2023-07-29T07:32:40;20.40;99.90
6764;DHT22;47432;48.760;9.178;2023-07-29T07:35:08;20.40;99.90
6764;DHT22;47432;48.760;9.178;2023-07-29T07:37:36;20.50;99.90
6764;DHT22;47432;48.760;9.178;2023-07-29T07:40:02;20.60;99.90
6764;DHT22;47432;48.760;9.178;2023-07-29T07:42:28;20.70;99.90
6764;DHT22;47432;48.760;9.178;2023-07-29T07:44:54;20.70;99.90
6764;DHT22;47432;48.760;9.178;2023-07-29T07:47:20;20.80;99.90
6764;DHT22;47432;48.760;9.178;2023-07-29T07:49:45;20.90;99.90
6764;DHT22;47432;48.760;9.178;2023-07-29T07:52:11;21.10;99.90
6764;DHT22;47432;48.760;9.178;2023-07-29T07:54:37;21.30;99.90
6764;DHT22;47432;48.760;9.178;2023-07-29T07:57:03;21.40;99.90
6764;DHT22;47432;48.760;9.178;2023-07-29T08:01:55;21.50;99.90
6764;DHT22;47432;48.760;9.178;2023-07-29T08:04:20;21.50;99.90
6764;DHT22;47432;48.760;9.178;2023-07-29T08:06:46;21.50;99.90
6764;DHT22;47432;48.760;9.178;2023-07-29T08:11:40;21.60;99.90
6764;DHT22;47432;48.760;9.178;2023-07-29T08:14:08;21.70;99.90
6764;DHT22;47432;48.760;9.178;2023-07-29T08:16:34;21.80;99.90
6764;DHT22;47432;48.760;9.178;2023-07-29T08:19:02;21.90;99.90
6764;DHT22;47432;48.760;9.178;2023-07-29T08:21:30;22.00;99.90
6764;DHT22;47432;48.760;9.178;2023-07-29T08:23:55;22.10;99.90
6764;DHT22;47432;48.760;9.178;2023-07-29T08:26:21;22.30;99.90
6764;DHT22;47432;48.760;9.178;2023-07-29T08:28:48;22.30;99.90
6764;DHT22;47432;48.760;9.178;2023-07-29T08:31:15;22.50;99.90
6764;DHT22;47432;48.760;9.178;2023-07-29T08:33:40;22.60;99.90
6764;DHT22;47432;48.760;9.178;2023-07-29T08:36:06;22.70;99.90
6764;DHT22;47432;48.760;9.178;2023-07-29T08:38:32;22.80;99.90
6764;DHT22;47432;48.760;9.178;2023-07-29T08:41:17;23.00;99.90
6764;DHT22;47432;48.760;9.178;2023-07-29T08:43:59;23.00;99.90
6764;DHT22;47432;48.760;9.178;2023-07-29T08:46:30;23.00;99.90
6764;DHT22;47432;48.760;9.178;2023-07-29T08:48:56;23.20;99.90
6764;DHT22;47432;48.760;9.178;2023-07-29T08:51:23;23.30;99.90
6764;DHT22;47432;48.760;9.178;2023-07-29T08:53:49;23.40;99.90
6764;DHT22;47432;48.760;9.178;2023-07-29T08:56:15;23.60;99.90
6764;DHT22;47432;48.760;9.178;2023-07-29T08:58:42;23.70;99.90
6764;DHT22;47432;48.760;9.178;2023-07-29T09:01:08;23.80;99.90
6764;DHT22;47432;48.760;9.178;2023-07-29T09:03:36;23.90;99.90
6764;DHT22;47432;48.760;9.178;2023-07-29T09:06:02;24.00;99.90
6764;DHT22;47432;48.760;9.178;2023-07-29T09:08:28;24.10;99.90
6764;DHT22;47432;48.760;9.178;2023-07-29T09:10:55;24.20;99.90
6764;DHT22;47432;48.760;9.178;2023-07-29T09:13:21;24.50;99.90
6764;DHT22;47432;48.760;9.178;2023-07-29T09:15:47;24.70;99.90
6764;DHT22;47432;48.760;9.178;2023-07-29T09:18:18;24.80;99.90
6764;DHT22;47432;48.760;9.178;2023-07-29T09:20:48;25.00;99.90
6764;DHT22;47432;48.760;9.178;2023-07-29T09:23:15;25.10;99.90
6764;DHT22;47432;48.760;9.178;2023-07-29T09:25:41;25.20;99.90
6764;DHT22;47432;48.760;9.178;2023-07-29T09:28:09;25.00;99.90
6764;DHT22;47432;48.760;9.178;2023-07-29T09:30:40;25.00;99.90
6764;DHT22;47432;48.760;9.178;2023-07-29T09:33:10;25.00;99.90
6764;DHT22;47432;48.760;9.178;2023-07-29T09:35:37;25.20;99.90
6764;DHT22;47432;48.760;9.178;2023-07-29T09:38:04;25.10;99.90
6764;DHT22;47432;48.760;9.178;2023-07-29T09:40:38;25.30;99.90
6764;DHT22;47432;48.760;9.178;2023-07-29T09:43:05;25.30;99.90
6764;DHT22;47432;48.760;9.178;2023-07-29T09:45:34;25.50;99.90
6764;DHT22;47432;48.760;9.178;2023-07-29T09:48:04;25.70;99.90
6764;DHT22;47432;48.760;9.178;2023-07-29T09:50:35;25.70;99.90
6764;DHT22;47432;48.760;9.178;2023-07-29T09:53:02;25.30;99.90
6764;DHT22;47432;48.760;9.178;2023-07-29T09:55:28;25.20;99.90
6764;DHT22;47432;48.760;9.178;2023-07-29T09:58:01;25.30;99.90
6764;DHT22;47432;48.760;9.178;2023-07-29T10:00:30;25.00;99.90
6764;DHT22;47432;48.760;9.178;2023-07-29T10:02:57;24.70;99.90
6764;DHT22;47432;48.760;9.178;2023-07-29T10:05:26;24.60;99.90
6764;DHT22;47432;48.760;9.178;2023-07-29T10:07:54;24.80;99.90
6764;DHT22;47432;48.760;9.178;2023-07-29T10:10:20;25.00;99.90
6764;DHT22;47432;48.760;9.178;2023-07-29T10:12:46;25.30;99.90
6764;DHT22;47432;48.760;9.178;2023-07-29T10:15:12;25.50;99.90
6764;DHT22;47432;48.760;9.178;2023-07-29T10:17:39;25.70;99.90
6764;DHT22;47432;48.760;9.178;2023-07-29T10:20:07;26.10;99.90
6764;DHT22;47432;48.760;9.178;2023-07-29T10:22:43;26.20;99.90
6764;DHT22;47432;48.760;9.178;2023-07-29T10:25:22;26.50;99.90
6764;DHT22;47432;48.760;9.178;2023-07-29T10:27:53;26.30;99.90
6764;DHT22;47432;48.760;9.178;2023-07-29T10:30:24;26.40;99.90
6764;DHT22;47432;48.760;9.178;2023-07-29T10:32:52;26.10;99.90
6764;DHT22;47432;48.760;9.178;2023-07-29T10:35:18;25.60;99.90
6764;DHT22;47432;48.760;9.178;2023-07-29T10:37:44;25.40;99.90
6764;DHT22;47432;48.760;9.178;2023-07-29T10:40:11;25.40;99.90
6764;DHT22;47432;48.760;9.178;2023-07-29T10:43:00;25.50;99.90
6764;DHT22;47432;48.760;9.178;2023-07-29T10:45:40;25.60;99.90
6764;DHT22;47432;48.760;9.178;2023-07-29T10:51:35;25.00;99.90
6764;DHT22;47432;48.760;9.178;2023-07-29T10:54:03;24.60;99.90
6764;DHT22;47432;48.760;9.178;2023-07-29T10:56:42;24.50;99.90
6764;DHT22;47432;48.760;9.178;2023-07-29T11:01:42;24.80;99.90
6764;DHT22;47432;48.760;9.178;2023-07-29T11:04:29;24.60;99.90
6764;DHT22;47432;48.760;9.178;2023-07-29T11:09:52;24.40;99.90
6764;DHT22;47432;48.760;9.178;2023-07-29T11:15:24;24.50;99.90
6764;DHT22;47432;48.760;9.178;2023-07-29T11:17:55;24.80;99.90
6764;DHT22;47432;48.760;9.178;2023-07-29T11:20:31;25.20;99.90
6764;DHT22;47432;48.760;9.178;2023-07-29T11:23:02;25.60;99.90
6764;DHT22;47432;48.760;9.178;2023-07-29T11:25:30;25.50;99.90
6764;DHT22;47432;48.760;9.178;2023-07-29T11:27:58;25.00;99.90
6764;DHT22;47432;48.760;9.178;2023-07-29T11:30:25;25.00;99.90
6764;DHT22;47432;48.760;9.178;2023-07-29T11:32:55;25.00;99.90
6764;DHT22;47432;48.760;9.178;2023-07-29T11:35:21;25.00;99.90
6764;DHT22;47432;48.760;9.178;2023-07-29T11:37:49;25.10;99.90
6764;DHT22;47432;48.760;9.178;2023-07-29T11:40:19;25.00;99.90
6764;DHT22;47432;48.760;9.178;2023-07-29T11:42:47;25.10;99.90
6764;DHT22;47432;48.760;9.178;2023-07-29T11:45:14;25.10;99.90
6764;DHT22;47432;48.760;9.178;2023-07-29T11:47:40;25.30;99.90
6764;DHT22;47432;48.760;9.178;2023-07-29T11:50:10;25.30;99.90
6764;DHT22;47432;48.760;9.178;2023-07-29T11:52:44;25.40;99.90
6764;DHT22;47432;48.760;9.178;2023-07-29T11:55:12;25.40;99.90
6764;DHT22;47432;48.760;9.178;2023-07-29T11:57:39;25.70;99.90
6764;DHT22;47432;48.760;9.178;2023-07-29T12:00:08;25.70;99.90
6764;DHT22;47432;48.760;9.178;2023-07-29T12:02:42;25.60;99.90
6764;DHT22;47432;48.760;9.178;2023-07-29T12:05:12;25.70;99.90
6764;DHT22;47432;48.760;9.178;2023-07-29T12:07:40;25.90;99.90
6764;DHT22;47432;48.760;9.178;2023-07-29T12:10:07;26.00;99.90
6764;DHT22;47432;48.760;9.178;2023-07-29T12:12:40;26.60;99.90
6764;DHT22;47432;48.760;9.178;2023-07-29T12:15:09;26.60;99.90
6764;DHT22;47432;48.760;9.178;2023-07-29T12:17:40;26.90;99.90
6764;DHT22;47432;48.760;9.178;2023-07-29T12:20:09;27.00;99.90
6764;DHT22;47432;48.760;9.178;2023-07-29T12:22:36;27.00;99.90
6764;DHT22;47432;48.760;9.178;2023-07-29T12:25:03;26.80;99.90
6764;DHT22;47432;48.760;9.178;2023-07-29T12:27:31;26.90;99.90
6764;DHT22;47432;48.760;9.178;2023-07-29T12:29:57;26.60;99.90
6764;DHT22;47432;48.760;9.178;2023-07-29T12:32:25;24.60;99.90
6764;DHT22;47432;48.760;9.178;2023-07-29T12:34:53;26.90;99.90
6764;DHT22;47432;48.760;9.178;2023-07-29T12:37:19;26.90;99.90
6764;DHT22;47432;48.760;9.178;2023-07-29T12:39:45;26.70;99.90
6764;DHT22;47432;48.760;9.178;2023-07-29T12:42:11;26.80;99.90
6764;DHT22;47432;48.760;9.178;2023-07-29T12:44:37;26.90;99.90
6764;DHT22;47432;48.760;9.178;2023-07-29T12:47:06;27.00;99.90
6764;DHT22;47432;48.760;9.178;2023-07-29T12:49:34;27.30;99.90
6764;DHT22;47432;48.760;9.178;2023-07-29T12:52:00;27.40;99.90
6764;DHT22;47432;48.760;9.178;2023-07-29T12:54:26;27.40;99.90
6764;DHT22;47432;48.760;9.178;2023-07-29T12:56:52;27.40;99.90
6764;DHT22;47432;48.760;9.178;2023-07-29T12:59:17;27.30;99.90
6764;DHT22;47432;48.760;9.178;2023-07-29T13:01:43;27.10;99.90
6764;DHT22;47432;48.760;9.178;2023-07-29T13:04:10;27.30;99.90
6764;DHT22;47432;48.760;9.178;2023-07-29T13:06:38;27.60;99.90
6764;DHT22;47432;48.760;9.178;2023-07-29T13:09:06;27.50;99.90
6764;DHT22;47432;48.760;9.178;2023-07-29T13:11:33;27.40;99.90
6764;DHT22;47432;48.760;9.178;2023-07-29T13:13:58;27.30;99.90
6764;DHT22;47432;48.760;9.178;2023-07-29T13:16:26;27.40;99.90
6764;DHT22;47432;48.760;9.178;2023-07-29T13:18:54;27.50;99.90
6764;DHT22;47432;48.760;9.178;2023-07-29T13:21:21;27.50;99.90
6764;DHT22;47432;48.760;9.178;2023-07-29T13:23:46;27.40;99.90
6764;DHT22;47432;48.760;9.178;2023-07-29T13:26:15;27.60;99.90
6764;DHT22;47432;48.760;9.178;2023-07-29T13:28:40;27.70;99.90
6764;DHT22;47432;48.760;9.178;2023-07-29T13:31:08;27.40;99.90
6764;DHT22;47432;48.760;9.178;2023-07-29T13:33:34;27.30;99.50
6764;DHT22;47432;48.760;9.178;2023-07-29T13:36:00;27.10;99.90
6764;DHT22;47432;48.760;9.178;2023-07-29T13:38:29;27.10;99.90
6764;DHT22;47432;48.760;9.178;2023-07-29T13:40:54;27.00;99.90
6764;DHT22;47432;48.760;9.178;2023-07-29T13:43:20;26.80;99.90
6764;DHT22;47432;48.760;9.178;2023-07-29T13:45:46;26.80;99.90
6764;DHT22;47432;48.760;9.178;2023-07-29T13:48:14;27.10;99.90
6764;DHT22;47432;48.760;9.178;2023-07-29T13:50:39;27.40;99.90
6764;DHT22;47432;48.760;9.178;2023-07-29T13:53:06;27.50;99.80
6764;DHT22;47432;48.760;9.178;2023-07-29T13:55:32;27.50;99.90
6764;DHT22;47432;48.760;9.178;2023-07-29T13:57:58;27.60;99.80
6764;DHT22;47432;48.760;9.178;2023-07-29T14:00:26;27.30;99.90
6764;DHT22;47432;48.760;9.178;2023-07-29T14:02:51;27.40;99.80
6764;DHT22;47432;48.760;9.178;2023-07-29T14:05:17;27.30;99.90
6764;DHT22;47432;48.760;9.178;2023-07-29T14:07:43;27.60;99.60
6764;DHT22;47432;48.760;9.178;2023-07-29T14:10:08;27.60;99.20
6764;DHT22;47432;48.760;9.178;2023-07-29T14:12:34;27.50;99.90
6764;DHT22;47432;48.760;9.178;2023-07-29T14:15:00;27.50;99.60
6764;DHT22;47432;48.760;9.178;2023-07-29T14:17:26;27.30;99.90
6764;DHT22;47432;48.760;9.178;2023-07-29T14:19:52;27.30;99.90
6764;DHT22;47432;48.760;9.178;2023-07-29T14:24:44;27.10;99.90
6764;DHT22;47432;48.760;9.178;2023-07-29T14:27:09;27.20;99.90
6764;DHT22;47432;48.760;9.178;2023-07-29T14:29:35;27.20;99.90
6764;DHT22;47432;48.760;9.178;2023-07-29T14:32:01;27.10;99.60
6764;DHT22;47432;48.760;9.178;2023-07-29T14:34:26;27.10;99.90
6764;DHT22;47432;48.760;9.178;2023-07-29T14:36:52;27.10;99.90
6764;DHT22;47432;48.760;9.178;2023-07-29T14:39:18;26.90;99.90
6764;DHT22;47432;48.760;9.178;2023-07-29T14:41:43;26.70;99.90
6764;DHT22;47432;48.760;9.178;2023-07-29T14:44:09;26.80;99.90
6764;DHT22;47432;48.760;9.178;2023-07-29T14:46:37;27.00;99.90
6764;DHT22;47432;48.760;9.178;2023-07-29T14:49:03;27.00;99.90
6764;DHT22;47432;48.760;9.178;2023-07-29T14:53:55;26.60;99.90
6764;DHT22;47432;48.760;9.178;2023-07-29T14:56:21;26.30;99.90
6764;DHT22;47432;48.760;9.178;2023-07-29T14:58:46;26.30;99.90
6764;DHT22;47432;48.760;9.178;2023-07-29T15:01:14;26.30;99.90
6764;DHT22;47432;48.760;9.178;2023-07-29T15:03:40;26.70;99.90
6764;DHT22;47432;48.760;9.178;2023-07-29T15:06:06;27.00;99.90
6764;DHT22;47432;48.760;9.178;2023-07-29T15:08:31;27.30;99.90
6764;DHT22;47432;48.760;9.178;2023-07-29T15:10:57;27.30;99.90
6764;DHT22;47432;48.760;9.178;2023-07-29T15:13:23;24.50;99.50
6764;DHT22;47432;48.760;9.178;2023-07-29T15:15:48;27.60;99.90
6764;DHT22;47432;48.760;9.178;2023-07-29T15:18:16;27.40;99.90
6764;DHT22;47432;48.760;9.178;2023-07-29T15:20:41;27.20;99.90
6764;DHT22;47432;48.760;9.178;2023-07-29T15:23:07;27.20;99.90
6764;DHT22;47432;48.760;9.178;2023-07-29T15:25:33;27.30;99.90
6764;DHT22;47432;48.760;9.178;2023-07-29T15:27:58;27.60;99.90
6764;DHT22;47432;48.760;9.178;2023-07-29T15:30:27;28.70;99.60
6764;DHT22;47432;48.760;9.178;2023-07-29T15:32:53;28.70;99.50
6764;DHT22;47432;48.760;9.178;2023-07-29T15:35:21;29.30;98.10
6764;DHT22;47432;48.760;9.178;2023-07-29T15:37:47;29.30;98.30
6764;DHT22;47432;48.760;9.178;2023-07-29T15:40:13;29.80;97.90
6764;DHT22;47432;48.760;9.178;2023-07-29T15:42:39;30.20;96.90
6764;DHT22;47432;48.760;9.178;2023-07-29T15:45:05;30.60;96.90
6764;DHT22;47432;48.760;9.178;2023-07-29T15:47:32;31.00;95.20
6764;DHT22;47432;48.760;9.178;2023-07-29T15:49:57;30.40;95.80
6764;DHT22;47432;48.760;9.178;2023-07-29T15:52:23;29.90;96.40
6764;DHT22;47432;48.760;9.178;2023-07-29T15:54:51;30.30;97.00
6764;DHT22;47432;48.760;9.178;2023-07-29T15:57:17;30.60;95.50
6764;DHT22;47432;48.760;9.178;2023-07-29T15:59:43;30.30;96.00
6764;DHT22;47432;48.760;9.178;2023-07-29T16:02:08;30.10;96.20
6764;DHT22;47432;48.760;9.178;2023-07-29T16:04:35;30.80;97.00
6764;DHT22;47432;48.760;9.178;2023-07-29T16:07:00;32.20;94.60
6764;DHT22;47432;48.760;9.178;2023-07-29T16:09:26;33.50;93.50
6764;DHT22;47432;48.760;9.178;2023-07-29T16:11:52;34.50;90.10
6764;DHT22;47432;48.760;9.178;2023-07-29T16:14:18;34.30;86.40
6764;DHT22;47432;48.760;9.178;2023-07-29T16:16:45;34.50;85.30
6764;DHT22;47432;48.760;9.178;2023-07-29T16:19:10;35.10;87.10
6764;DHT22;47432;48.760;9.178;2023-07-29T16:21:39;35.50;80.70
6764;DHT22;47432;48.760;9.178;2023-07-29T16:24:05;34.90;80.30